createdAt,value
2024-01-15T00:02:04.377Z,97233.88
2024-01-15T00:04:30.988Z,97226.19
2024-01-15T00:06:57.776Z,97233.56
2024-01-15T00:09:24.479Z,97231.91
2024-01-15T00:11:51.037Z,97227.03
2024-01-15T00:14:21.248Z,97213.38
2024-01-15T00:16:50.563Z,97205.25
2024-01-15T00:19:17.309Z,97208.81
2024-01-15T00:21:44.556Z,97200.00
2024-01-15T00:24:11.269Z,97192.38
2024-01-15T00:26:37.850Z,97188.16
2024-01-15T00:29:04.885Z,97192.72
2024-01-15T00:31:31.618Z,97184.25
2024-01-15T00:33:59.126Z,97188.78
2024-01-15T00:36:26.387Z,97187.19
2024-01-15T00:38:53.201Z,97177.72
2024-01-15T00:41:19.858Z,97180.19
2024-01-15T00:43:47.273Z,97172.53
2024-01-15T00:46:13.820Z,97161.59
2024-01-15T00:48:40.457Z,97172.53
2024-01-15T00:51:07.303Z,97168.44
2024-01-15T00:53:34.134Z,97171.91
2024-01-15T00:56:01.310Z,97176.44
2024-01-15T00:58:28.176Z,97168.13
2024-01-15T01:00:54.792Z,97169.78
2024-01-15T01:03:21.634Z,97172.22
2024-01-15T01:05:51.216Z,97169.59
2024-01-15T01:08:18.180Z,97160.81
2024-01-15T01:10:44.771Z,97156.56
2024-01-15T01:13:11.479Z,97158.69
2024-01-15T01:15:38.448Z,97159.50
2024-01-15T01:18:05.899Z,97153.47
2024-01-15T01:20:32.731Z,97162.44
2024-01-15T01:22:59.340Z,97158.16
2024-01-15T01:25:25.994Z,97169.25
2024-01-15T01:27:52.557Z,97152.63
2024-01-15T01:30:19.264Z,97166.94
2024-01-15T01:32:45.883Z,97168.53
2024-01-15T01:35:13.772Z,97153.38
2024-01-15T01:37:40.274Z,97164.59
2024-01-15T01:40:07.573Z,97162.34
2024-01-15T01:42:34.204Z,97157.47
2024-01-15T01:45:00.762Z,97166.91
2024-01-15T01:47:27.792Z,97156.00
2024-01-15T01:49:55.182Z,97152.28
2024-01-15T01:52:21.949Z,97152.44
2024-01-15T01:54:48.952Z,97168.22
2024-01-15T01:57:16.641Z,97160.28
2024-01-15T01:59:43.209Z,97152.28
2024-01-15T02:02:09.789Z,97152.13
2024-01-15T02:04:38.038Z,97156.34
2024-01-15T02:07:05.520Z,97152.13
2024-01-15T02:09:33.294Z,97149.56
2024-01-15T02:12:00.254Z,97158.50
2024-01-15T02:14:27.103Z,97146.81
2024-01-15T02:16:53.694Z,97152.31
2024-01-15T02:19:20.522Z,97142.06
2024-01-15T02:21:47.308Z,97142.91
2024-01-15T02:24:14.215Z,97125.31
2024-01-15T02:26:40.993Z,97130.19
2024-01-15T02:29:11.595Z,97124.00
2024-01-15T02:31:38.482Z,97129.06
2024-01-15T02:34:05.795Z,97123.00
2024-01-15T02:36:32.591Z,97120.75
2024-01-15T02:38:59.206Z,97127.91
2024-01-15T02:41:25.891Z,97130.34
2024-01-15T02:43:52.448Z,97135.41
2024-01-15T02:46:19.087Z,97115.84
2024-01-15T02:48:45.839Z,97115.22
2024-01-15T02:51:12.650Z,97110.97
2024-01-15T02:53:40.144Z,97116.38
2024-01-15T02:56:08.887Z,97121.06
2024-01-15T02:58:35.579Z,97114.69
2024-01-15T03:01:02.536Z,97122.88
2024-01-15T03:03:29.720Z,97115.03
2024-01-15T03:05:56.477Z,97107.72
2024-01-15T03:08:24.020Z,97101.50
2024-01-15T03:10:51.030Z,97082.28
2024-01-15T03:13:17.614Z,97070.38
2024-01-15T03:15:44.733Z,97077.06
2024-01-15T03:18:11.667Z,97100.81
2024-01-15T03:20:38.413Z,97106.56
2024-01-15T03:23:05.075Z,97096.63
2024-01-15T03:25:31.704Z,97107.34
2024-01-15T03:27:58.370Z,97097.28
2024-01-15T03:30:25.180Z,97107.72
2024-01-15T03:32:51.832Z,97112.94
2024-01-15T03:35:18.351Z,97116.72
2024-01-15T03:37:44.919Z,97117.19
2024-01-15T03:40:12.158Z,97114.94
2024-01-15T03:42:38.814Z,97111.00
2024-01-15T03:45:05.958Z,97104.00
2024-01-15T03:47:32.780Z,97086.59
2024-01-15T03:49:59.521Z,97086.59
2024-01-15T03:52:26.255Z,97082.03
2024-01-15T03:54:52.878Z,97081.72
2024-01-15T03:57:19.554Z,97083.00
2024-01-15T03:59:48.405Z,97090.19
2024-01-15T04:02:15.481Z,97099.59
2024-01-15T04:04:44.087Z,97089.03
2024-01-15T04:07:11.109Z,97081.69
2024-01-15T04:09:37.805Z,97070.63
2024-01-15T04:12:04.691Z,97081.22
2024-01-15T04:14:31.208Z,97082.31
2024-01-15T04:16:57.822Z,97086.25
2024-01-15T04:19:24.346Z,97066.69
2024-01-15T04:21:51.139Z,97074.81
2024-01-15T04:24:19.180Z,97071.91
2024-01-15T04:26:46.453Z,97064.91
2024-01-15T04:29:13.173Z,97059.19
2024-01-15T04:31:39.916Z,97055.13
2024-01-15T04:34:06.626Z,97050.91
2024-01-15T04:36:40.418Z,97049.44
2024-01-15T04:39:07.197Z,97042.78
2024-01-15T04:41:34.026Z,97047.16
2024-01-15T04:44:02.317Z,97036.72
2024-01-15T04:46:29.042Z,97051.84
2024-01-15T04:48:55.712Z,97052.31
2024-01-15T04:51:22.345Z,97052.31
2024-01-15T04:53:48.947Z,97042.38
2024-01-15T04:56:15.450Z,97044.00
2024-01-15T04:58:41.972Z,97040.28
2024-01-15T05:01:09.989Z,97032.44
2024-01-15T05:03:37.158Z,97036.66
2024-01-15T05:06:04.463Z,97052.94
2024-01-15T05:08:31.241Z,97052.16
2024-01-15T05:10:57.838Z,97052.94
2024-01-15T05:13:24.360Z,97046.94
2024-01-15T05:15:50.992Z,97038.44
2024-01-15T05:18:18.215Z,97034.53
2024-01-15T05:20:45.366Z,97046.25
2024-01-15T05:23:12.028Z,97043.13
2024-01-15T05:25:38.594Z,97038.22
2024-01-15T05:28:06.607Z,97022.00
2024-01-15T05:30:33.303Z,97016.78
2024-01-15T05:33:01.509Z,97025.91
2024-01-15T05:35:28.257Z,97008.38
2024-01-15T05:37:54.846Z,97003.16
2024-01-15T05:40:22.081Z,97000.03
2024-01-15T05:42:48.991Z,97004.94
2024-01-15T05:45:15.737Z,97007.69
2024-01-15T05:47:42.475Z,97005.91
2024-01-15T05:50:09.866Z,97017.16
2024-01-15T05:52:37.549Z,97000.84
2024-01-15T05:55:04.397Z,97001.81
2024-01-15T05:57:31.083Z,96992.34
2024-01-15T05:59:57.766Z,96993.19
2024-01-15T06:02:24.440Z,96988.78
2024-01-15T06:04:51.048Z,96982.59
2024-01-15T06:07:17.688Z,96989.59
2024-01-15T06:09:44.383Z,96990.72
2024-01-15T06:12:10.980Z,96987.44
2024-01-15T06:14:37.716Z,96992.66
2024-01-15T06:17:04.481Z,96990.53
2024-01-15T06:19:31.215Z,96978.31
2024-01-15T06:21:58.371Z,96980.94
2024-01-15T06:24:25.155Z,96978.78
2024-01-15T06:26:51.735Z,96977.28
2024-01-15T06:29:18.362Z,96989.00
2024-01-15T06:31:45.407Z,96987.38
2024-01-15T06:34:12.244Z,96989.19
2024-01-15T06:36:38.996Z,96993.88
2024-01-15T06:39:06.302Z,96996.78
2024-01-15T06:41:33.164Z,96993.53
2024-01-15T06:43:59.850Z,96995.19
2024-01-15T06:46:26.386Z,96993.34
2024-01-15T06:48:52.971Z,96998.25
2024-01-15T06:51:19.707Z,96998.41
2024-01-15T06:53:46.294Z,97000.69
2024-01-15T06:56:13.316Z,96997.47
2024-01-15T06:58:39.902Z,97004.28
2024-01-15T07:01:09.171Z,96999.25
2024-01-15T07:03:35.968Z,97000.03
2024-01-15T07:06:02.775Z,96997.59
2024-01-15T07:08:29.506Z,96982.28
2024-01-15T07:10:56.020Z,97000.34
2024-01-15T07:13:23.269Z,97003.44
2024-01-15T07:15:50.037Z,96986.91
2024-01-15T07:18:17.777Z,96990.47
2024-01-15T07:20:44.582Z,96980.53
2024-01-15T07:23:11.181Z,96992.91
2024-01-15T07:25:37.906Z,96995.69
2024-01-15T07:28:05.411Z,96993.56
2024-01-15T07:30:32.174Z,96994.84
2024-01-15T07:32:58.849Z,96989.78
2024-01-15T07:35:25.753Z,96991.75
2024-01-15T07:37:52.452Z,96986.03
2024-01-15T07:40:18.954Z,96979.00
2024-01-15T07:42:45.505Z,96987.47
2024-01-15T07:45:12.486Z,96986.75
2024-01-15T07:47:39.091Z,96984.16
2024-01-15T07:50:06.851Z,96986.13
2024-01-15T07:52:35.213Z,96977.63
2024-01-15T07:55:02.190Z,96985.59
2024-01-15T07:57:29.368Z,96981.19
2024-01-15T07:59:55.921Z,96980.88
2024-01-15T08:02:23.025Z,96976.63
2024-01-15T08:04:49.739Z,96980.03
2024-01-15T08:07:17.293Z,96978.88
2024-01-15T08:09:44.076Z,96971.25
2024-01-15T08:12:11.554Z,96975.25
2024-01-15T08:14:38.101Z,96978.19
2024-01-15T08:17:04.804Z,96979.66
2024-01-15T08:19:31.586Z,96981.25
2024-01-15T08:21:58.266Z,96994.84
2024-01-15T08:24:24.904Z,96982.94
2024-01-15T08:26:51.471Z,96981.44
2024-01-15T08:29:19.818Z,96989.28
2024-01-15T08:31:46.739Z,96982.72
2024-01-15T08:34:13.705Z,96975.28
2024-01-15T08:36:41.716Z,96972.25
2024-01-15T08:39:10.092Z,96967.41
2024-01-15T08:41:37.174Z,96980.38
2024-01-15T08:44:04.121Z,96983.66
2024-01-15T08:46:30.804Z,96979.69
2024-01-15T08:48:57.464Z,96972.84
2024-01-15T08:51:24.251Z,96967.50
2024-01-15T08:53:50.837Z,96980.97
2024-01-15T08:56:17.821Z,96979.34
2024-01-15T08:58:44.475Z,96978.06
2024-01-15T09:01:12.532Z,96977.53
2024-01-15T09:03:39.173Z,96984.09
2024-01-15T09:06:05.976Z,96976.75
2024-01-15T09:08:32.475Z,96978.53
2024-01-15T09:11:00.093Z,96984.19
2024-01-15T09:13:26.576Z,96984.38
2024-01-15T09:15:54.118Z,96975.22
2024-01-15T09:18:21.055Z,96979.53
2024-01-15T09:20:47.694Z,96969.09
2024-01-15T09:23:14.275Z,96956.22
2024-01-15T09:25:41.355Z,96960.09
2024-01-15T09:28:09.085Z,96961.81
2024-01-15T09:30:35.652Z,96961.19
2024-01-15T09:33:02.845Z,96959.94
2024-01-15T09:35:29.496Z,96960.22
2024-01-15T09:37:56.109Z,96960.84
2024-01-15T09:40:22.793Z,96956.31
2024-01-15T09:42:51.621Z,96954.88
2024-01-15T09:45:18.392Z,96956.50
2024-01-15T09:47:46.675Z,96943.88
2024-01-15T09:50:16.089Z,96960.91
2024-01-15T09:52:44.695Z,96957.97
2024-01-15T09:55:13.085Z,96955.63
2024-01-15T09:57:40.484Z,96952.38
2024-01-15T10:00:08.637Z,96958.16
2024-01-15T10:02:37.119Z,96950.97
2024-01-15T10:05:06.083Z,96938.25
2024-01-15T10:07:36.093Z,96946.81
2024-01-15T10:10:05.279Z,96923.72
2024-01-15T10:12:31.983Z,96948.91
2024-01-15T10:14:59.879Z,96942.31
2024-01-15T10:17:29.130Z,96939.53
2024-01-15T10:19:56.073Z,96941.13
2024-01-15T10:22:23.238Z,96939.34
2024-01-15T10:24:50.382Z,96932.13
2024-01-15T10:27:17.579Z,96927.91
2024-01-15T10:29:44.757Z,96930.44
2024-01-15T10:32:12.645Z,96931.06
2024-01-15T10:34:44.367Z,96921.16
2024-01-15T10:37:11.620Z,96922.97
2024-01-15T10:39:39.318Z,96927.56
2024-01-15T10:42:07.779Z,96913.94
2024-01-15T10:44:35.642Z,96914.75
2024-01-15T10:47:02.795Z,96920.88
2024-01-15T10:49:32.835Z,96909.69
2024-01-15T10:52:02.471Z,96911.31
2024-01-15T10:54:30.394Z,96894.28
2024-01-15T10:56:58.195Z,96912.00
2024-01-15T10:59:26.409Z,96909.84
2024-01-15T11:01:57.449Z,96902.72
2024-01-15T11:04:25.564Z,96899.75
2024-01-15T11:06:55.993Z,96898.22
2024-01-15T11:09:25.008Z,96895.81
2024-01-15T11:12:08.196Z,96895.41
2024-01-15T11:14:47.566Z,96902.34
2024-01-15T11:17:15.023Z,96904.97
2024-01-15T11:19:46.346Z,96904.78
2024-01-15T11:22:34.972Z,96906.03
2024-01-15T11:25:05.560Z,96911.25
2024-01-15T11:27:53.316Z,96911.72
2024-01-15T11:30:21.228Z,96909.47
2024-01-15T11:32:48.018Z,96908.28
2024-01-15T11:35:16.322Z,96910.91
2024-01-15T11:37:52.125Z,96908.28
2024-01-15T11:40:35.533Z,96910.91
2024-01-15T11:43:03.814Z,96909.72
2024-01-15T11:45:31.786Z,96911.16
2024-01-15T11:48:13.521Z,96874.75
2024-01-15T11:50:45.413Z,96918.91
2024-01-15T11:53:28.253Z,96921.16
2024-01-15T11:55:59.425Z,96930.00
2024-01-15T11:58:26.614Z,96925.59
2024-01-15T12:00:54.875Z,96934.06
2024-01-15T12:03:25.861Z,96938.09
2024-01-15T12:05:56.306Z,96938.47
2024-01-15T12:08:26.327Z,96936.94
2024-01-15T12:10:53.279Z,96937.75
2024-01-15T12:13:22.185Z,96928.53
2024-01-15T12:15:50.019Z,96934.13
2024-01-15T12:18:19.708Z,96924.41
2024-01-15T12:20:49.865Z,96931.25
2024-01-15T12:23:18.420Z,96926.75
2024-01-15T12:25:45.468Z,96939.22
2024-01-15T12:28:12.492Z,96927.13
2024-01-15T12:30:40.251Z,96930.63
2024-01-15T12:33:08.921Z,96940.53
2024-01-15T12:35:37.666Z,96940.53
2024-01-15T12:38:04.893Z,96940.94
2024-01-15T12:40:34.422Z,96947.75
2024-01-15T12:43:01.974Z,96958.69
2024-01-15T12:45:28.790Z,96951.25
2024-01-15T12:47:56.276Z,96953.34
2024-01-15T12:50:25.570Z,96949.72
2024-01-15T12:52:52.529Z,96958.38
2024-01-15T12:55:19.227Z,96956.75
2024-01-15T12:57:46.806Z,96955.97
2024-01-15T13:00:15.334Z,96955.25
2024-01-15T13:02:45.368Z,96960.28
2024-01-15T13:05:14.173Z,96950.00
2024-01-15T13:07:42.104Z,96948.13
2024-01-15T13:10:10.523Z,96949.56
2024-01-15T13:12:38.883Z,96946.22
2024-01-15T13:15:05.949Z,96950.22
2024-01-15T13:17:32.652Z,96955.88
2024-01-15T13:19:59.730Z,96950.72
2024-01-15T13:22:33.809Z,96948.38
2024-01-15T13:25:01.410Z,96947.97
2024-01-15T13:27:28.209Z,96958.09
2024-01-15T13:29:55.158Z,96948.88
2024-01-15T13:32:30.530Z,96945.34
2024-01-15T13:34:58.706Z,96938.00
2024-01-15T13:37:25.695Z,96936.91
2024-01-15T13:39:53.814Z,96936.66
2024-01-15T13:42:23.947Z,96944.38
2024-01-15T13:44:51.756Z,96947.56
2024-01-15T13:47:18.450Z,96950.78
2024-01-15T13:49:45.379Z,96953.50
2024-01-15T13:52:12.144Z,96963.22
2024-01-15T13:54:48.114Z,96971.88
2024-01-15T13:57:18.060Z,96969.25
2024-01-15T13:59:44.800Z,96966.22
2024-01-15T14:02:11.644Z,96954.81
2024-01-15T14:04:39.757Z,96956.88
2024-01-15T14:07:07.540Z,96971.78
2024-01-15T14:09:34.697Z,96973.69
2024-01-15T14:12:01.300Z,96990.16
2024-01-15T14:14:27.805Z,96997.00
2024-01-15T14:16:54.367Z,97002.06
2024-01-15T14:19:22.304Z,96997.41
2024-01-15T14:21:49.618Z,97001.00
2024-01-15T14:24:17.534Z,97006.59
2024-01-15T14:26:44.453Z,97008.03
2024-01-15T14:29:11.191Z,97009.47
2024-01-15T14:31:37.939Z,97011.13
2024-01-15T14:34:04.938Z,97010.03
2024-01-15T14:36:31.731Z,97007.41
2024-01-15T14:38:58.329Z,97010.97
2024-01-15T14:41:25.641Z,97011.22
2024-01-15T14:43:52.264Z,97014.03
2024-01-15T14:46:19.038Z,97020.72
2024-01-15T14:48:46.302Z,97028.19
2024-01-15T14:51:13.334Z,97029.19
2024-01-15T14:53:40.149Z,97025.56
2024-01-15T14:56:06.932Z,97032.09
2024-01-15T14:58:34.016Z,97024.41
2024-01-15T15:01:00.710Z,97040.03
2024-01-15T15:03:27.678Z,97035.09
2024-01-15T15:05:54.508Z,97042.38
2024-01-15T15:08:21.170Z,97055.47
2024-01-15T15:10:48.215Z,97053.22
2024-01-15T15:13:14.798Z,97058.44
2024-01-15T15:15:42.346Z,97054.84
2024-01-15T15:18:08.987Z,97063.69
2024-01-15T15:20:36.537Z,97066.31
2024-01-15T15:23:04.193Z,97068.03
2024-01-15T15:25:30.824Z,97078.97
2024-01-15T15:27:57.626Z,97076.53
2024-01-15T15:30:24.426Z,97075.28
2024-01-15T15:32:51.121Z,97083.75
2024-01-15T15:35:17.988Z,97089.72
2024-01-15T15:37:44.625Z,97094.56
2024-01-15T15:40:12.437Z,97096.56
2024-01-15T15:42:39.280Z,97098.22
2024-01-15T15:45:07.289Z,97106.88
2024-01-15T15:47:33.976Z,97115.53
2024-01-15T15:50:00.871Z,97117.16
2024-01-15T15:52:28.127Z,97122.03
2024-01-15T15:54:54.803Z,97124.47
2024-01-15T15:57:21.960Z,97122.75
2024-01-15T15:59:48.511Z,97124.81
2024-01-15T16:02:15.696Z,97123.47
2024-01-15T16:04:42.314Z,97125.84
2024-01-15T16:07:10.937Z,97133.03
2024-01-15T16:09:38.256Z,97134.66
2024-01-15T16:12:05.494Z,97149.34
2024-01-15T16:14:32.031Z,97151.34
2024-01-15T16:23:13.751Z,97147.28
2024-01-15T16:23:26.939Z,97144.03
2024-01-15T16:23:42.363Z,97148.28
2024-01-15T16:25:19.740Z,97153.59
2024-01-15T16:27:46.582Z,97157.03
2024-01-15T16:30:24.704Z,97167.66
2024-01-15T16:32:56.805Z,97166.22
2024-01-15T16:35:24.006Z,97168.84
2024-01-15T16:37:51.121Z,97173.44
2024-01-15T16:40:17.886Z,97185.00
2024-01-15T16:42:46.210Z,97183.56
2024-01-15T16:45:13.033Z,97198.34
2024-01-15T16:47:40.043Z,97206.19
2024-01-15T16:50:07.086Z,97200.22
2024-01-15T16:52:34.211Z,97202.84
2024-01-15T16:55:00.973Z,97204.13
2024-01-15T16:57:27.616Z,97203.03
2024-01-15T16:59:54.273Z,97208.19
2024-01-15T17:02:21.009Z,97208.00
2024-01-15T17:04:48.248Z,97226.59
2024-01-15T17:07:15.223Z,97221.44
2024-01-15T17:09:41.757Z,97214.59
2024-01-15T17:12:08.882Z,97219.84
2024-01-15T17:14:35.966Z,97214.59
2024-01-15T17:17:02.804Z,97228.09
2024-01-15T17:19:29.463Z,97219.34
2024-01-15T17:21:56.482Z,97227.81
2024-01-15T17:24:23.109Z,97221.13
2024-01-15T17:26:50.237Z,97238.91
2024-01-15T17:29:17.520Z,97237.00
2024-01-15T17:31:44.565Z,97239.28
2024-01-15T17:34:11.656Z,97244.81
2024-01-15T17:36:39.030Z,97256.25
2024-01-15T17:41:13.787Z,97252.75
2024-01-15T17:43:40.399Z,97264.03
2024-01-15T17:46:06.941Z,97262.53
2024-01-15T17:48:34.128Z,97263.31
2024-01-15T17:51:00.800Z,97273.44
2024-01-15T17:53:27.370Z,97274.50
2024-01-15T17:55:53.947Z,97276.50
2024-01-15T17:58:20.924Z,97275.66
2024-01-15T18:00:47.452Z,97278.09
2024-01-15T18:03:14.015Z,97280.09
2024-01-15T18:05:41.452Z,97286.00
2024-01-15T18:08:08.072Z,97296.34
2024-01-15T18:10:34.628Z,97298.78
2024-01-15T18:13:01.321Z,97298.16
2024-01-15T18:15:28.078Z,97297.19
2024-01-15T18:17:54.935Z,97304.03
2024-01-15T18:20:22.251Z,97311.09
2024-01-15T18:22:51.542Z,97314.16
2024-01-15T18:25:18.400Z,97317.88
2024-01-15T18:27:44.975Z,97319.84
2024-01-15T18:30:14.391Z,97319.16
2024-01-15T18:32:41.149Z,97322.63
2024-01-15T18:35:08.046Z,97339.00
2024-01-15T18:37:34.798Z,97334.63
2024-01-15T18:40:01.662Z,97335.25
2024-01-15T18:42:29.009Z,97340.66
2024-01-15T18:44:55.631Z,97342.94
2024-01-15T18:47:22.175Z,97346.03
2024-01-15T18:49:48.902Z,97343.84
2024-01-15T18:52:17.548Z,97341.09
2024-01-15T18:54:44.273Z,97335.06
2024-01-15T18:57:10.897Z,97346.47
2024-01-15T18:59:38.624Z,97349.09
2024-01-15T19:02:05.350Z,97346.47
2024-01-15T19:04:32.019Z,97348.94
2024-01-15T19:06:58.672Z,97350.97
2024-01-15T19:09:26.910Z,97362.88
2024-01-15T19:11:53.959Z,97365.19
2024-01-15T19:14:20.782Z,97354.47
2024-01-15T19:16:47.664Z,97368.97
2024-01-15T19:19:14.671Z,97373.69
2024-01-15T19:21:41.250Z,97361.13
2024-01-15T19:24:07.944Z,97364.25
2024-01-15T19:26:34.518Z,97370.47
2024-01-15T19:29:01.553Z,97365.56
2024-01-15T19:31:30.531Z,97367.72
2024-01-15T19:33:57.592Z,97369.69
2024-01-15T19:36:26.234Z,97373.63
2024-01-15T19:38:54.191Z,97375.72
2024-01-15T19:41:22.140Z,97383.28
2024-01-15T19:43:48.937Z,97373.19
2024-01-15T19:46:16.012Z,97382.63
2024-01-15T19:48:42.692Z,97385.25
2024-01-15T19:51:09.374Z,97392.13
2024-01-15T19:53:36.294Z,97401.56
2024-01-15T19:56:03.356Z,97390.13
2024-01-15T19:58:32.038Z,97394.88
2024-01-15T20:01:00.603Z,97405.63
2024-01-15T20:03:27.414Z,97410.53
2024-01-15T20:05:54.063Z,97409.81
2024-01-15T20:08:21.408Z,97402.81
2024-01-15T20:10:48.451Z,97417.53
2024-01-15T20:13:15.111Z,97427.16
2024-01-15T20:15:41.665Z,97421.44
2024-01-15T20:18:09.212Z,97427.69
2024-01-15T20:20:36.454Z,97420.69
2024-01-15T20:23:05.631Z,97435.38
2024-01-15T20:25:32.727Z,97433.75
2024-01-15T20:27:59.474Z,97445.38
2024-01-15T20:30:26.027Z,97435.56
2024-01-15T20:32:52.825Z,97435.94
2024-01-15T20:35:22.218Z,97443.28
2024-01-15T20:37:49.659Z,97445.72
2024-01-15T20:40:16.195Z,97442.16
2024-01-15T20:42:42.843Z,97452.28
2024-01-15T20:45:09.502Z,97457.69
2024-01-15T20:47:36.217Z,97406.59
2024-01-15T20:50:03.960Z,97451.13
2024-01-15T20:52:30.522Z,97452.28
2024-01-15T20:54:57.110Z,97457.66
2024-01-15T20:57:23.679Z,97461.41
2024-01-15T20:59:51.948Z,97455.53
2024-01-15T21:02:19.045Z,97456.81
2024-01-15T21:04:45.632Z,97457.81
2024-01-15T21:07:12.262Z,97456.28
2024-01-15T21:09:41.127Z,97454.84
2024-01-15T21:12:11.251Z,97463.34
2024-01-15T21:14:39.560Z,97463.03
2024-01-15T21:17:06.398Z,97458.66
2024-01-15T21:19:33.101Z,97463.38
2024-01-15T21:21:59.896Z,97458.47
2024-01-15T21:24:28.706Z,97465.69
2024-01-15T21:26:57.854Z,97469.94
2024-01-15T21:29:25.522Z,97464.72
2024-01-15T21:31:52.482Z,97459.97
2024-01-15T21:34:21.715Z,97461.94
2024-01-15T21:36:49.529Z,97456.25
2024-01-15T21:39:16.807Z,97461.78
2024-01-15T21:41:44.779Z,97464.59
2024-01-15T21:44:12.055Z,97460.53
2024-01-15T21:46:38.936Z,97464.41
2024-01-15T21:49:05.794Z,97460.84
2024-01-15T21:51:33.123Z,97481.59
2024-01-15T21:54:00.610Z,97478.50
2024-01-15T21:56:27.630Z,97482.41
2024-01-15T21:58:54.163Z,97485.34
2024-01-15T22:01:20.936Z,97481.44
2024-01-15T22:03:47.575Z,97459.88
2024-01-15T22:06:15.248Z,97488.97
2024-01-15T22:08:42.087Z,97492.41
2024-01-15T22:11:08.626Z,97494.84
2024-01-15T22:13:35.183Z,97498.25
2024-01-15T22:16:03.330Z,97502.03
2024-01-15T22:18:29.980Z,97510.50
2024-01-15T22:20:58.002Z,97522.75
2024-01-15T22:23:24.856Z,97517.06
2024-01-15T22:25:51.481Z,97521.97
2024-01-15T22:28:18.022Z,97515.41
2024-01-15T22:30:44.845Z,97531.09
2024-01-15T22:33:11.603Z,97536.31
2024-01-15T22:35:38.930Z,97529.13
2024-01-15T22:38:06.868Z,97552.81
2024-01-15T22:40:33.404Z,97547.44
2024-01-15T22:42:59.979Z,97551.69
2024-01-15T22:45:26.809Z,97556.41
2024-01-15T22:47:53.573Z,97556.59
2024-01-15T22:50:20.261Z,97557.22
2024-01-15T22:52:46.950Z,97556.72
2024-01-15T22:55:13.590Z,97543.00
2024-01-15T22:57:40.111Z,97545.47
2024-01-15T23:00:20.593Z,97545.16
2024-01-15T23:02:48.389Z,97543.50
2024-01-15T23:05:15.563Z,97553.47
2024-01-15T23:07:42.596Z,97565.06
2024-01-15T23:10:09.923Z,97560.81
2024-01-15T23:12:37.663Z,97574.19
2024-01-15T23:15:08.126Z,97572.41
2024-01-15T23:17:35.484Z,97568.63
2024-01-15T23:20:02.505Z,97532.34
2024-01-15T23:22:30.152Z,97576.47
2024-01-15T23:24:56.791Z,97576.78
2024-01-15T23:27:23.395Z,97570.59
2024-01-15T23:29:50.057Z,97571.56
2024-01-15T23:32:16.729Z,97579.09
2024-01-15T23:34:43.398Z,97576.78
2024-01-15T23:37:09.895Z,97578.88
2024-01-15T23:39:36.679Z,97583.97
2024-01-15T23:42:03.334Z,97586.56
2024-01-15T23:44:30.035Z,97594.75
2024-01-15T23:46:56.607Z,97585.91
2024-01-15T23:49:23.214Z,97585.44
2024-01-15T23:51:49.843Z,97575.47
2024-01-15T23:54:16.427Z,97589.19
2024-01-15T23:56:43.804Z,97586.91
2024-01-15T23:59:10.424Z,97585.75
